createdAt,value
2018-05-17T00:00:21.996Z,78.90
2018-05-17T00:05:24.555Z,78.70
2018-05-17T00:10:27.120Z,78.80
2018-05-17T00:15:29.679Z,78.40
2018-05-17T00:20:32.264Z,78.00
2018-05-17T00:25:36.301Z,78.30
2018-05-17T00:30:39.186Z,78.90
2018-05-17T00:35:41.858Z,79.10
2018-05-17T00:40:44.356Z,78.70
2018-05-17T00:45:47.996Z,78.10
2018-05-17T00:50:51.329Z,78.30
2018-05-17T00:55:55.455Z,78.30
2018-05-17T01:00:58.015Z,78.70
2018-05-17T01:06:00.592Z,78.70
2018-05-17T01:11:05.824Z,78.90
2018-05-17T01:16:08.388Z,79.10
2018-05-17T01:21:28.103Z,79.60
2018-05-17T01:26:32.268Z,80.30
2018-05-17T01:31:35.078Z,80.30
2018-05-17T01:36:49.510Z,79.40
2018-05-17T01:41:52.852Z,78.90
2018-05-17T01:46:55.989Z,78.90
2018-05-17T01:51:59.116Z,78.20
2018-05-17T01:57:02.294Z,79.10
2018-05-17T02:02:05.692Z,79.60
2018-05-17T02:07:08.951Z,80.20
2018-05-17T02:12:11.526Z,81.60
2018-05-17T02:17:15.443Z,81.50
2018-05-17T02:22:18.020Z,82.20
2018-05-17T02:27:21.358Z,81.50
2018-05-17T02:32:24.027Z,81.50
2018-05-17T02:37:27.357Z,79.70
2018-05-17T02:42:29.907Z,79.70
2018-05-17T02:47:32.482Z,79.50
2018-05-17T02:52:35.353Z,79.80
2018-05-17T02:57:41.387Z,81.10
2018-05-17T03:02:44.165Z,81.10
2018-05-17T03:07:46.756Z,81.70
2018-05-17T03:12:49.323Z,83.40
2018-05-17T03:17:54.190Z,86.00
2018-05-17T03:23:03.267Z,85.30
2018-05-17T03:28:05.833Z,85.10
2018-05-17T03:33:08.545Z,85.60
2018-05-17T03:38:11.431Z,87.30
2018-05-17T03:43:14.755Z,86.00
2018-05-17T03:48:17.893Z,86.00
2018-05-17T03:53:20.457Z,86.40
2018-05-17T03:58:24.077Z,84.50
2018-05-17T04:03:39.248Z,83.80
2018-05-17T04:08:42.618Z,84.50
2018-05-17T04:13:45.186Z,83.40
2018-05-17T04:18:48.528Z,84.40
2018-05-17T04:23:51.093Z,84.30
2018-05-17T04:28:54.434Z,84.90
2018-05-17T04:33:57.597Z,84.80
2018-05-17T04:39:02.313Z,84.30
2018-05-17T04:44:05.338Z,85.30
2018-05-17T04:49:07.920Z,84.60
2018-05-17T04:54:11.136Z,85.20
2018-05-17T04:59:14.393Z,85.00
2018-05-17T05:04:17.748Z,84.50
2018-05-17T05:09:21.555Z,83.70
2018-05-17T05:14:24.899Z,82.90
2018-05-17T05:19:27.512Z,82.90
2018-05-17T05:24:30.101Z,82.40
2018-05-17T05:29:32.667Z,82.60
2018-05-17T05:34:36.014Z,84.90
2018-05-17T05:39:38.858Z,84.90
2018-05-17T05:44:41.448Z,84.90
2018-05-17T05:49:44.375Z,85.70
2018-05-17T05:54:47.905Z,87.20
2018-05-17T05:59:51.252Z,87.20
2018-05-17T06:04:53.844Z,87.20
2018-05-17T06:09:56.407Z,87.70
2018-05-17T06:15:00.413Z,86.90
2018-05-17T06:20:02.975Z,86.80
2018-05-17T06:25:07.969Z,86.30
2018-05-17T06:30:10.719Z,88.40
2018-05-17T06:35:13.564Z,86.20
2018-05-17T06:40:16.601Z,84.40
2018-05-17T06:45:19.253Z,84.30
2018-05-17T06:50:21.825Z,85.40
2018-05-17T06:55:25.315Z,85.40
2018-05-17T07:00:28.347Z,85.10
2018-05-17T07:05:31.751Z,85.20
2018-05-17T07:10:35.750Z,85.90
2018-05-17T07:15:39.033Z,85.90
2018-05-17T07:20:42.122Z,86.00
2018-05-17T07:25:45.453Z,84.60
2018-05-17T07:30:48.021Z,84.60
2018-05-17T07:35:51.911Z,86.60
2018-05-17T07:40:54.490Z,86.50
2018-05-17T07:45:58.842Z,88.70
2018-05-17T07:51:01.419Z,89.70
2018-05-17T07:56:04.000Z,89.60
2018-05-17T08:01:07.323Z,87.50
2018-05-17T08:06:11.140Z,87.50
2018-05-17T08:11:14.406Z,86.60
2018-05-17T08:16:16.982Z,86.90
2018-05-17T08:21:21.485Z,85.60
2018-05-17T08:26:25.171Z,86.00
2018-05-17T08:31:27.761Z,86.00
2018-05-17T08:36:30.726Z,87.70
2018-05-17T08:41:34.683Z,86.30
2018-05-17T08:46:37.883Z,86.30
2018-05-17T08:51:40.556Z,84.90
2018-05-17T08:56:44.688Z,87.50
2018-05-17T09:01:48.606Z,88.30
2018-05-17T09:06:51.180Z,88.90
2018-05-17T09:11:53.743Z,85.20
2018-05-17T09:16:56.759Z,85.20
2018-05-17T09:21:59.321Z,85.20
2018-05-17T09:27:02.653Z,81.90
2018-05-17T09:32:05.222Z,82.50
2018-05-17T09:37:07.802Z,83.30
2018-05-17T09:42:10.636Z,84.60
2018-05-17T09:47:13.964Z,81.20
2018-05-17T09:52:17.306Z,82.10
2018-05-17T09:57:19.889Z,82.10
2018-05-17T10:02:22.596Z,81.80
2018-05-17T10:07:25.588Z,83.00
2018-05-17T10:12:35.011Z,83.90
2018-05-17T10:17:40.414Z,82.10
2018-05-17T10:22:43.022Z,83.10
2018-05-17T10:27:45.591Z,84.00
2018-05-17T10:32:48.921Z,81.10
2018-05-17T10:37:53.375Z,81.20
2018-05-17T10:42:55.933Z,81.20
2018-05-17T10:47:59.057Z,81.60
2018-05-17T10:53:02.388Z,80.80
2018-05-17T10:58:05.712Z,80.40
2018-05-17T11:03:08.809Z,80.30
2018-05-17T11:08:12.157Z,84.50
2018-05-17T11:13:17.746Z,84.40
2018-05-17T11:18:20.312Z,83.10
2018-05-17T11:23:22.987Z,85.50
2018-05-17T11:28:26.317Z,81.30
2018-05-17T11:33:29.931Z,81.20
2018-05-17T11:38:33.311Z,85.20
2018-05-17T11:43:35.826Z,85.00
2018-05-17T11:48:39.152Z,84.50
2018-05-17T11:53:42.489Z,84.80
2018-05-17T11:58:45.070Z,84.80
2018-05-17T12:03:48.413Z,81.50
2018-05-17T12:08:50.991Z,81.50
2018-05-17T12:13:53.569Z,81.00
2018-05-17T12:18:56.997Z,78.90
2018-05-17T12:24:01.296Z,78.80
2018-05-17T12:29:03.873Z,78.70
2018-05-17T12:34:06.448Z,79.00
2018-05-17T12:39:09.003Z,78.90
2018-05-17T12:44:12.328Z,79.40
2018-05-17T12:49:14.903Z,79.40
2018-05-17T12:54:17.463Z,77.80
2018-05-17T12:59:20.036Z,78.90
2018-05-17T13:04:23.366Z,76.10
2018-05-17T13:09:25.928Z,76.10
2018-05-17T13:14:28.513Z,71.40
2018-05-17T13:19:31.097Z,72.70
2018-05-17T13:24:33.671Z,71.70
2018-05-17T13:29:37.100Z,71.90
2018-05-17T13:34:39.686Z,74.40
2018-05-17T13:39:42.278Z,75.80
2018-05-17T13:44:44.856Z,74.80
2018-05-17T13:49:48.176Z,72.90
2018-05-17T13:54:51.510Z,76.40
2018-05-17T13:59:54.109Z,76.50
2018-05-17T14:04:56.789Z,76.50
2018-05-17T14:10:00.183Z,74.70
2018-05-17T14:15:02.767Z,74.70
2018-05-17T14:20:05.410Z,73.30
2018-05-17T14:25:07.990Z,72.80
2018-05-17T14:30:12.109Z,70.10
2018-05-17T14:35:14.712Z,70.10
2018-05-17T14:40:17.311Z,68.20
2018-05-17T14:45:19.871Z,65.90
2018-05-17T14:50:27.279Z,70.80
2018-05-17T14:55:31.063Z,66.60
2018-05-17T15:00:33.625Z,66.50
2018-05-17T15:05:36.224Z,66.00
2018-05-17T15:16:07.186Z,66.50
2018-05-17T15:21:09.852Z,65.90
2018-05-17T15:26:13.586Z,64.80
2018-05-17T15:31:16.939Z,66.00
2018-05-17T15:36:19.573Z,66.00
2018-05-17T15:41:22.118Z,66.70
2018-05-17T15:46:24.704Z,66.10
2018-05-17T15:51:28.295Z,65.70
2018-05-17T15:56:30.864Z,65.60
2018-05-17T16:01:33.517Z,66.60
2018-05-17T16:06:36.952Z,67.60
2018-05-17T16:11:39.945Z,67.50
2018-05-17T16:16:42.533Z,65.40
2018-05-17T16:21:46.323Z,62.40
2018-05-17T16:26:48.909Z,62.40
2018-05-17T16:31:51.479Z,63.20
2018-05-17T16:36:54.077Z,63.70
2018-05-17T16:41:56.660Z,63.50
2018-05-17T16:46:59.247Z,64.00
2018-05-17T16:52:02.163Z,65.30
2018-05-17T16:57:05.569Z,67.90
2018-05-17T17:02:08.627Z,67.90
2018-05-17T17:07:11.235Z,68.00
2018-05-17T17:12:13.817Z,67.90
2018-05-17T17:17:16.407Z,66.90
2018-05-17T17:22:19.477Z,65.80
2018-05-17T17:27:36.725Z,65.10
2018-05-17T17:32:39.307Z,65.70
2018-05-17T17:37:41.894Z,64.00
2018-05-17T17:42:44.481Z,65.00
2018-05-17T17:47:47.055Z,65.50
2018-05-17T17:52:49.615Z,64.50
2018-05-17T17:57:52.192Z,63.80
2018-05-17T18:02:55.844Z,66.20
2018-05-17T18:07:59.166Z,66.90
2018-05-17T18:13:01.775Z,66.90
2018-05-17T18:18:04.992Z,67.60
2018-05-17T18:23:07.716Z,68.70
2018-05-17T18:28:10.379Z,70.30
2018-05-17T18:33:13.798Z,71.50
2018-05-17T18:38:16.568Z,71.50
2018-05-17T18:43:20.896Z,71.80
2018-05-17T18:48:23.525Z,71.90
2018-05-17T18:53:29.475Z,74.00
2018-05-17T18:58:32.048Z,74.00
2018-05-17T19:03:34.718Z,75.60
2018-05-17T19:08:38.570Z,74.70
2018-05-17T19:13:41.872Z,75.00
2018-05-17T19:18:44.445Z,75.00
2018-05-17T19:23:48.595Z,76.00
2018-05-17T19:28:51.736Z,75.90
2018-05-17T19:33:54.722Z,74.20
2018-05-17T19:38:57.889Z,74.30
2018-05-17T19:44:00.460Z,74.00
2018-05-17T19:49:06.452Z,73.80
2018-05-17T19:54:09.028Z,74.20
2018-05-17T19:59:11.665Z,74.60
2018-05-17T20:04:14.480Z,74.20
2018-05-17T20:09:17.494Z,74.60
2018-05-17T20:14:20.915Z,75.50
2018-05-17T20:19:23.519Z,75.50
2018-05-17T20:24:26.884Z,76.30
2018-05-17T20:29:46.988Z,76.20
2018-05-17T20:40:32.151Z,76.40
2018-05-17T20:45:34.730Z,76.50
2018-05-17T20:50:38.105Z,76.80
2018-05-17T20:55:40.997Z,77.00
2018-05-17T21:00:45.010Z,77.80
2018-05-17T21:05:48.082Z,77.80
2018-05-17T21:10:51.363Z,78.20
2018-05-17T21:15:53.989Z,78.20
2018-05-17T21:20:57.195Z,78.00
2018-05-17T21:26:03.090Z,78.20
2018-05-17T21:31:05.688Z,78.10
2018-05-17T21:36:08.557Z,77.80
2018-05-17T21:41:13.794Z,77.90
2018-05-17T21:46:17.812Z,78.00
2018-05-17T21:51:20.376Z,78.00
2018-05-17T21:56:23.314Z,77.80
2018-05-17T22:01:25.892Z,77.90
2018-05-17T22:06:28.486Z,77.90
2018-05-17T22:11:31.590Z,77.60
2018-05-17T22:16:34.884Z,77.20
2018-05-17T22:21:40.227Z,77.50
2018-05-17T22:26:43.131Z,77.20
2018-05-17T22:31:46.359Z,77.50
2018-05-17T22:36:49.492Z,78.00
2018-05-17T22:41:52.180Z,77.70
2018-05-17T22:47:21.885Z,78.00
2018-05-17T22:52:25.930Z,78.30
2018-05-17T22:57:42.003Z,78.30
2018-05-17T23:02:44.841Z,78.00
2018-05-17T23:08:13.594Z,78.70
2018-05-17T23:13:19.272Z,78.10
2018-05-17T23:18:22.327Z,78.00
2018-05-17T23:23:25.135Z,78.10
2018-05-17T23:28:28.781Z,78.40
2018-05-17T23:33:31.774Z,78.00
2018-05-17T23:38:35.922Z,77.40
2018-05-17T23:43:39.926Z,77.20
2018-05-17T23:48:43.371Z,78.30
2018-05-17T23:53:46.064Z,78.70
2018-05-17T23:58:52.758Z,78.40
